createdAt,value
2017-05-10T00:00:07.380Z,8.68
2017-05-10T00:01:07.939Z,8.34
2017-05-10T00:02:07.706Z,8.06
2017-05-10T00:03:07.469Z,8.07
2017-05-10T00:04:08.103Z,8.15
2017-05-10T00:05:07.723Z,8.12
2017-05-10T00:06:07.338Z,8.14
2017-05-10T00:07:07.981Z,8.04
2017-05-10T00:08:07.796Z,8.07
2017-05-10T00:09:07.459Z,8.09
2017-05-10T00:10:08.178Z,8.16
2017-05-10T00:11:07.663Z,8.36
2017-05-10T00:12:07.334Z,8.46
2017-05-10T00:13:07.908Z,8.58
2017-05-10T00:14:07.322Z,8.63
2017-05-10T00:15:07.498Z,8.44
2017-05-10T00:16:08.021Z,8.14
2017-05-10T00:17:07.948Z,7.92
2017-05-10T00:18:07.730Z,7.92
2017-05-10T00:19:07.395Z,8.08
2017-05-10T00:20:08.180Z,8.09
2017-05-10T00:21:07.926Z,8.07
2017-05-10T00:22:07.878Z,7.80
2017-05-10T00:23:07.534Z,7.72
2017-05-10T00:24:08.265Z,7.87
2017-05-10T00:25:07.775Z,7.88
2017-05-10T00:26:07.485Z,8.03
2017-05-10T00:27:08.018Z,8.21
2017-05-10T00:28:07.713Z,8.27
2017-05-10T00:29:07.428Z,8.34
2017-05-10T00:30:08.037Z,8.12
2017-05-10T00:31:07.686Z,7.80
2017-05-10T00:32:07.264Z,7.93
2017-05-10T00:33:07.838Z,7.97
2017-05-10T00:34:07.535Z,7.87
2017-05-10T00:35:08.147Z,7.85
2017-05-10T00:36:07.856Z,7.70
2017-05-10T00:37:07.484Z,7.68
2017-05-10T00:38:08.351Z,7.66
2017-05-10T00:39:08.038Z,7.70
2017-05-10T00:40:07.616Z,7.62
2017-05-10T00:41:07.155Z,7.69
2017-05-10T00:42:07.724Z,7.91
2017-05-10T00:43:07.424Z,7.73
2017-05-10T00:44:08.114Z,7.72
2017-05-10T00:45:07.885Z,7.61
2017-05-10T00:46:07.471Z,7.49
2017-05-10T00:47:08.087Z,7.49
2017-05-10T00:48:08.522Z,7.69
2017-05-10T00:49:08.260Z,7.58
2017-05-10T00:50:08.810Z,7.73
2017-05-10T00:51:06.759Z,7.69
2017-05-10T00:52:07.533Z,7.78
2017-05-10T00:53:08.228Z,7.47
2017-05-10T00:54:07.882Z,7.45
2017-05-10T00:55:07.633Z,7.78
2017-05-10T00:56:07.197Z,7.93
2017-05-10T00:57:07.845Z,7.90
2017-05-10T00:58:07.478Z,7.97
2017-05-10T00:59:08.227Z,8.10
2017-05-10T01:00:07.890Z,8.13
2017-05-10T01:01:07.479Z,7.78
2017-05-10T01:02:08.238Z,7.67
2017-05-10T01:03:07.773Z,7.63
2017-05-10T01:04:07.467Z,7.56
2017-05-10T01:05:08.126Z,7.67
2017-05-10T01:06:07.757Z,7.79
2017-05-10T01:07:07.305Z,7.57
2017-05-10T01:08:07.838Z,7.46
2017-05-10T01:09:07.540Z,7.38
2017-05-10T01:10:08.205Z,7.20
2017-05-10T01:11:07.839Z,7.16
2017-05-10T01:12:07.515Z,7.26
2017-05-10T01:13:07.955Z,7.44
2017-05-10T01:14:07.459Z,7.35
2017-05-10T01:15:08.214Z,7.32
2017-05-10T01:16:07.856Z,7.34
2017-05-10T01:17:07.477Z,7.44
2017-05-10T01:18:08.082Z,7.48
2017-05-10T01:19:07.767Z,7.56
2017-05-10T01:20:07.409Z,7.26
2017-05-10T01:21:07.916Z,7.53
2017-05-10T01:22:07.549Z,7.76
2017-05-10T01:23:08.147Z,7.94
2017-05-10T01:24:08.354Z,8.02
2017-05-10T01:25:08.123Z,7.91
2017-05-10T01:26:07.935Z,7.87
2017-05-10T01:27:07.675Z,7.85
2017-05-10T01:28:07.337Z,7.71
2017-05-10T01:29:07.972Z,7.82
2017-05-10T01:30:07.875Z,7.57
2017-05-10T01:31:07.542Z,7.39
2017-05-10T01:32:08.195Z,7.22
2017-05-10T01:33:07.849Z,7.06
2017-05-10T01:34:07.691Z,7.35
2017-05-10T01:35:07.439Z,7.40
2017-05-10T01:36:08.265Z,7.53
2017-05-10T01:37:07.498Z,7.55
2017-05-10T01:38:08.087Z,7.54
2017-05-10T01:39:07.580Z,7.62
2017-05-10T01:40:07.282Z,7.68
2017-05-10T01:41:07.894Z,7.71
2017-05-10T01:42:07.607Z,7.47
2017-05-10T01:43:07.202Z,7.34
2017-05-10T01:44:07.774Z,7.17
2017-05-10T01:45:07.465Z,6.95
2017-05-10T01:46:08.141Z,6.83
2017-05-10T01:47:07.857Z,6.91
2017-05-10T01:48:07.565Z,6.99
2017-05-10T01:49:08.132Z,6.92
2017-05-10T01:50:07.750Z,7.00
2017-05-10T01:51:07.388Z,7.15
2017-05-10T01:52:08.097Z,7.31
2017-05-10T01:53:07.727Z,7.49
2017-05-10T01:54:07.486Z,7.48
2017-05-10T01:55:08.109Z,7.40
2017-05-10T01:56:07.818Z,7.02
2017-05-10T01:57:07.464Z,6.92
2017-05-10T01:58:08.939Z,6.86
2017-05-10T01:59:07.679Z,6.92
2017-05-10T02:00:07.417Z,6.77
2017-05-10T02:01:08.040Z,6.96
2017-05-10T02:02:07.645Z,7.25
2017-05-10T02:03:07.299Z,7.33
2017-05-10T02:04:08.008Z,7.43
2017-05-10T02:05:07.761Z,7.18
2017-05-10T02:06:07.422Z,7.07
2017-05-10T02:07:07.961Z,6.81
2017-05-10T02:08:07.614Z,6.91
2017-05-10T02:09:07.330Z,6.93
2017-05-10T02:10:08.016Z,6.78
2017-05-10T02:11:07.718Z,6.60
2017-05-10T02:12:07.155Z,7.00
2017-05-10T02:13:07.915Z,7.18
2017-05-10T02:14:07.678Z,7.21
2017-05-10T02:15:07.380Z,7.30
2017-05-10T02:16:08.173Z,7.24
2017-05-10T02:17:08.066Z,7.22
2017-05-10T02:18:07.744Z,7.00
2017-05-10T02:19:07.370Z,6.84
2017-05-10T02:20:08.041Z,6.71
2017-05-10T02:21:07.931Z,6.83
2017-05-10T02:22:07.568Z,6.81
2017-05-10T02:23:07.307Z,6.87
2017-05-10T02:24:07.962Z,6.73
2017-05-10T02:25:07.665Z,6.43
2017-05-10T02:26:07.315Z,6.56
2017-05-10T02:27:08.107Z,6.93
2017-05-10T02:28:07.708Z,6.84
2017-05-10T02:29:07.437Z,6.83
2017-05-10T02:30:08.262Z,6.71
2017-05-10T02:31:07.930Z,6.59
2017-05-10T02:32:07.515Z,6.48
2017-05-10T02:33:08.120Z,6.52
2017-05-10T02:34:07.825Z,6.47
2017-05-10T02:35:07.487Z,6.69
2017-05-10T02:36:08.239Z,6.66
2017-05-10T02:37:07.816Z,6.55
2017-05-10T02:38:07.474Z,6.40
2017-05-10T02:39:08.065Z,6.35
2017-05-10T02:40:07.677Z,6.39
2017-05-10T02:41:07.277Z,6.70
2017-05-10T02:42:08.090Z,6.88
2017-05-10T02:43:07.679Z,6.99
2017-05-10T02:44:07.456Z,6.78
2017-05-10T02:45:07.895Z,6.82
2017-05-10T02:46:07.527Z,6.54
2017-05-10T02:47:08.210Z,6.53
2017-05-10T02:48:07.819Z,6.38
2017-05-10T02:49:07.504Z,6.24
2017-05-10T02:50:08.158Z,6.08
2017-05-10T02:51:07.893Z,5.99
2017-05-10T02:52:07.477Z,5.98
2017-05-10T02:53:08.138Z,6.17
2017-05-10T02:54:08.270Z,6.19
2017-05-10T02:55:07.902Z,6.14
2017-05-10T02:56:07.521Z,6.30
2017-05-10T02:57:08.168Z,6.25
2017-05-10T02:58:07.674Z,6.35
2017-05-10T02:59:07.400Z,6.24
2017-05-10T03:00:07.947Z,6.12
2017-05-10T03:01:07.532Z,6.11
2017-05-10T03:02:08.141Z,6.05
2017-05-10T03:03:07.818Z,6.05
2017-05-10T03:04:07.514Z,6.08
2017-05-10T03:05:08.151Z,6.16
2017-05-10T03:06:07.906Z,6.21
2017-05-10T03:07:07.343Z,6.18
2017-05-10T03:08:07.742Z,6.04
2017-05-10T03:09:07.350Z,5.93
2017-05-10T03:10:08.089Z,5.82
2017-05-10T03:11:07.614Z,5.99
2017-05-10T03:12:07.330Z,6.11
2017-05-10T03:13:07.886Z,6.27
2017-05-10T03:14:07.543Z,6.29
2017-05-10T03:15:08.240Z,6.44
2017-05-10T03:16:07.965Z,6.49
2017-05-10T03:17:07.871Z,6.53
2017-05-10T03:18:07.486Z,6.29
2017-05-10T03:19:08.195Z,6.11
2017-05-10T03:20:07.834Z,6.03
2017-05-10T03:21:07.520Z,6.02
2017-05-10T03:22:08.331Z,5.88
2017-05-10T03:23:07.976Z,5.86
2017-05-10T03:24:07.850Z,6.12
2017-05-10T03:25:07.476Z,5.85
2017-05-10T03:26:08.186Z,5.85
2017-05-10T03:27:07.785Z,6.10
2017-05-10T03:28:07.439Z,6.19
2017-05-10T03:29:08.122Z,6.33
2017-05-10T03:30:07.744Z,6.43
2017-05-10T03:31:07.399Z,6.53
2017-05-10T03:32:08.083Z,6.49
2017-05-10T03:33:07.640Z,6.55
2017-05-10T03:34:07.479Z,6.63
2017-05-10T03:35:08.102Z,6.72
2017-05-10T03:36:07.686Z,6.76
2017-05-10T03:37:07.520Z,6.67
2017-05-10T03:38:08.165Z,6.66
2017-05-10T03:39:08.298Z,6.66
2017-05-10T03:40:07.928Z,6.63
2017-05-10T03:41:07.568Z,6.72
2017-05-10T03:42:08.092Z,6.71
2017-05-10T03:43:07.879Z,6.75
2017-05-10T03:44:07.589Z,6.61
2017-05-10T03:45:08.159Z,6.57
2017-05-10T03:46:07.889Z,6.53
2017-05-10T03:47:07.538Z,6.20
2017-05-10T03:48:08.220Z,6.19
2017-05-10T03:49:08.332Z,6.07
2017-05-10T03:50:08.002Z,5.96
2017-05-10T03:51:07.644Z,5.81
2017-05-10T03:52:07.342Z,5.77
2017-05-10T03:53:07.975Z,5.70
2017-05-10T03:54:07.497Z,5.93
2017-05-10T03:55:08.145Z,6.05
2017-05-10T03:56:07.733Z,6.18
2017-05-10T03:57:07.467Z,6.09
2017-05-10T03:58:08.157Z,6.10
2017-05-10T03:59:07.871Z,6.17
2017-05-10T04:00:07.466Z,5.94
2017-05-10T04:01:08.109Z,5.83
2017-05-10T04:02:07.749Z,5.79
2017-05-10T04:03:07.627Z,5.77
2017-05-10T04:04:07.615Z,5.85
2017-05-10T04:05:07.305Z,5.76
2017-05-10T04:06:07.865Z,5.97
2017-05-10T04:07:07.709Z,5.98
2017-05-10T04:08:07.303Z,5.92
2017-05-10T04:09:08.028Z,5.72
2017-05-10T04:10:07.634Z,5.76
2017-05-10T04:11:07.255Z,5.70
2017-05-10T04:12:07.964Z,5.64
2017-05-10T04:13:07.667Z,5.53
2017-05-10T04:14:07.327Z,5.64
2017-05-10T04:15:07.900Z,5.65
2017-05-10T04:16:07.845Z,5.77
2017-05-10T04:17:07.558Z,5.77
2017-05-10T04:18:08.041Z,5.70
2017-05-10T04:19:07.775Z,5.87
2017-05-10T04:20:07.736Z,5.71
2017-05-10T04:21:07.504Z,5.89
2017-05-10T04:22:07.892Z,5.77
2017-05-10T04:23:07.788Z,5.73
2017-05-10T04:24:07.768Z,5.90
2017-05-10T04:25:10.054Z,5.77
2017-05-10T04:26:08.076Z,5.65
2017-05-10T04:27:07.746Z,5.79
2017-05-10T04:28:07.332Z,5.80
2017-05-10T04:29:08.158Z,5.80
2017-05-10T04:30:07.684Z,5.95
2017-05-10T04:31:07.279Z,5.97
2017-05-10T04:32:07.902Z,5.77
2017-05-10T04:33:07.643Z,6.01
2017-05-10T04:34:07.370Z,6.15
2017-05-10T04:35:07.883Z,5.95
2017-05-10T04:36:07.539Z,5.93
2017-05-10T04:37:08.201Z,6.06
2017-05-10T04:38:07.916Z,5.98
2017-05-10T04:39:07.623Z,5.98
2017-05-10T04:40:07.441Z,6.26
2017-05-10T04:41:08.096Z,6.19
2017-05-10T04:42:07.798Z,6.38
2017-05-10T04:43:07.577Z,6.21
2017-05-10T04:44:08.234Z,6.25
2017-05-10T04:45:07.918Z,6.28
2017-05-10T04:46:07.589Z,6.32
2017-05-10T04:47:08.221Z,6.18
2017-05-10T04:48:07.819Z,6.07
2017-05-10T04:49:07.642Z,6.29
2017-05-10T04:50:07.306Z,6.38
2017-05-10T04:51:07.993Z,6.26
2017-05-10T04:52:07.707Z,6.36
2017-05-10T04:53:07.356Z,6.51
2017-05-10T04:54:08.047Z,6.58
2017-05-10T04:55:07.698Z,6.55
2017-05-10T04:56:07.478Z,6.59
2017-05-10T04:57:08.143Z,6.36
2017-05-10T04:58:07.797Z,6.35
2017-05-10T04:59:07.541Z,6.56
2017-05-10T05:00:08.304Z,6.66
2017-05-10T05:01:08.146Z,6.73
2017-05-10T05:02:07.804Z,6.64
2017-05-10T05:03:07.239Z,6.69
2017-05-10T05:04:08.542Z,6.84
2017-05-10T05:05:08.142Z,6.85
2017-05-10T05:06:07.797Z,6.80
2017-05-10T05:07:07.391Z,6.86
2017-05-10T05:08:07.999Z,6.99
2017-05-10T05:09:07.653Z,7.10
2017-05-10T05:10:07.299Z,7.15
2017-05-10T05:11:08.243Z,7.03
2017-05-10T05:12:07.892Z,7.05
2017-05-10T05:13:07.565Z,7.05
2017-05-10T05:14:08.528Z,6.95
2017-05-10T05:15:08.091Z,6.86
2017-05-10T05:16:08.136Z,6.85
2017-05-10T05:17:07.848Z,7.02
2017-05-10T05:18:07.452Z,6.78
2017-05-10T05:19:08.074Z,6.67
2017-05-10T05:20:07.709Z,6.85
2017-05-10T05:21:07.389Z,6.95
2017-05-10T05:22:08.043Z,7.09
2017-05-10T05:23:07.610Z,7.21
2017-05-10T05:24:07.508Z,7.06
2017-05-10T05:25:07.391Z,7.20
2017-05-10T05:26:07.898Z,7.22
2017-05-10T05:27:07.656Z,7.31
2017-05-10T05:28:07.213Z,7.13
2017-05-10T05:29:08.008Z,7.30
2017-05-10T05:30:07.741Z,7.32
2017-05-10T05:31:07.514Z,7.44
2017-05-10T05:32:08.289Z,7.61
2017-05-10T05:33:07.901Z,7.75
2017-05-10T05:34:07.751Z,7.71
2017-05-10T05:35:07.417Z,7.72
2017-05-10T05:36:08.098Z,7.58
2017-05-10T05:37:07.857Z,7.67
2017-05-10T05:38:07.418Z,7.66
2017-05-10T05:39:08.106Z,7.54
2017-05-10T05:40:07.815Z,7.65
2017-05-10T05:41:07.403Z,7.56
2017-05-10T05:42:08.097Z,7.56
2017-05-10T05:43:07.863Z,7.58
2017-05-10T05:44:07.606Z,7.61
2017-05-10T05:45:07.343Z,7.86
2017-05-10T05:46:08.071Z,7.75
2017-05-10T05:47:07.731Z,7.92
2017-05-10T05:48:07.369Z,8.04
2017-05-10T05:49:08.193Z,8.05
2017-05-10T05:50:07.911Z,8.20
2017-05-10T05:51:07.556Z,7.89
2017-05-10T05:52:08.270Z,7.99
2017-05-10T05:53:07.900Z,8.12
2017-05-10T05:54:07.444Z,8.14
2017-05-10T05:55:08.106Z,8.01
2017-05-10T05:56:07.771Z,8.16
2017-05-10T05:57:07.410Z,8.19
2017-05-10T05:58:08.173Z,8.27
2017-05-10T05:59:07.855Z,8.37
2017-05-10T06:00:07.343Z,8.42
2017-05-10T06:01:08.151Z,8.34
2017-05-10T06:02:07.801Z,8.48
2017-05-10T06:03:07.390Z,8.39
2017-05-10T06:04:07.992Z,8.40
2017-05-10T06:05:07.747Z,8.31
2017-05-10T06:06:07.451Z,8.36
2017-05-10T06:07:08.135Z,8.49
2017-05-10T06:08:07.729Z,8.47
2017-05-10T06:09:07.422Z,8.38
2017-05-10T06:10:08.176Z,8.47
2017-05-10T06:11:07.893Z,8.50
2017-05-10T06:12:07.534Z,8.59
2017-05-10T06:13:08.215Z,8.68
2017-05-10T06:14:07.856Z,8.61
2017-05-10T06:15:07.555Z,8.74
2017-05-10T06:16:08.277Z,8.66
2017-05-10T06:17:07.988Z,8.69
2017-05-10T06:18:07.576Z,8.75
2017-05-10T06:19:08.206Z,8.85
2017-05-10T06:20:07.892Z,8.85
2017-05-10T06:21:07.544Z,8.88
2017-05-10T06:22:08.092Z,8.87
2017-05-10T06:23:07.752Z,8.90
2017-05-10T06:24:07.377Z,8.87
2017-05-10T06:25:08.198Z,8.88
2017-05-10T06:26:07.840Z,8.98
2017-05-10T06:27:07.455Z,8.95
2017-05-10T06:28:08.197Z,8.96
2017-05-10T06:29:07.960Z,8.98
2017-05-10T06:30:07.536Z,8.89
2017-05-10T06:31:08.244Z,8.87
2017-05-10T06:32:07.873Z,8.95
2017-05-10T06:33:07.510Z,8.96
2017-05-10T06:34:08.130Z,9.06
2017-05-10T06:35:07.800Z,9.10
2017-05-10T06:36:07.386Z,9.03
2017-05-10T06:37:08.087Z,8.91
2017-05-10T06:38:07.930Z,9.00
2017-05-10T06:39:07.530Z,9.08
2017-05-10T06:40:08.201Z,9.12
2017-05-10T06:41:07.888Z,9.18
2017-05-10T06:42:07.572Z,9.11
2017-05-10T06:43:08.199Z,9.18
2017-05-10T06:44:07.825Z,9.28
2017-05-10T06:45:07.685Z,9.32
2017-05-10T06:46:07.405Z,9.32
2017-05-10T06:47:08.094Z,9.39
2017-05-10T06:48:07.780Z,9.35
2017-05-10T06:49:07.535Z,9.25
2017-05-10T06:50:08.342Z,9.34
2017-05-10T06:51:08.173Z,9.36
2017-05-10T06:52:07.927Z,9.43
2017-05-10T06:53:07.793Z,9.43
2017-05-10T06:54:07.499Z,9.53
2017-05-10T06:55:08.361Z,9.57
2017-05-10T06:56:08.093Z,9.63
2017-05-10T06:57:07.754Z,9.61
2017-05-10T06:58:07.581Z,9.67
2017-05-10T06:59:07.045Z,9.66
2017-05-10T07:00:07.238Z,9.65
2017-05-10T07:01:07.942Z,9.62
2017-05-10T07:02:07.598Z,9.67
2017-05-10T07:03:07.157Z,9.61
2017-05-10T07:04:08.039Z,9.63
2017-05-10T07:05:07.841Z,9.67
2017-05-10T07:06:07.515Z,9.74
2017-05-10T07:07:08.196Z,9.72
2017-05-10T07:08:07.973Z,9.70
2017-05-10T07:09:07.719Z,9.73
2017-05-10T07:10:07.533Z,9.79
2017-05-10T07:11:08.143Z,9.80
2017-05-10T07:12:07.880Z,9.83
2017-05-10T07:13:07.585Z,9.75
2017-05-10T07:14:07.277Z,9.69
2017-05-10T07:15:08.016Z,9.78
2017-05-10T07:16:07.782Z,9.89
2017-05-10T07:17:07.621Z,9.96
2017-05-10T07:18:07.315Z,10.08
2017-05-10T07:19:07.980Z,10.02
2017-05-10T07:20:07.588Z,10.05
2017-05-10T07:21:07.268Z,10.09
2017-05-10T07:22:08.080Z,10.19
2017-05-10T07:23:07.779Z,10.20
2017-05-10T07:24:07.426Z,10.27
2017-05-10T07:25:08.282Z,10.30
2017-05-10T07:26:07.773Z,10.27
2017-05-10T07:27:07.461Z,10.32
2017-05-10T07:28:08.190Z,10.36
2017-05-10T07:29:07.945Z,10.33
2017-05-10T07:30:07.581Z,10.37
2017-05-10T07:31:07.340Z,10.31
2017-05-10T07:32:08.813Z,10.34
2017-05-10T07:33:07.562Z,10.22
2017-05-10T07:34:07.475Z,10.29
2017-05-10T07:35:08.075Z,10.21
2017-05-10T07:36:07.621Z,10.26
2017-05-10T07:37:07.335Z,10.32
2017-05-10T07:38:08.252Z,10.41
2017-05-10T07:39:08.045Z,10.40
2017-05-10T07:40:07.659Z,10.41
2017-05-10T07:41:07.361Z,10.43
2017-05-10T07:42:08.054Z,10.46
2017-05-10T07:43:07.756Z,10.52
2017-05-10T07:44:07.592Z,10.59
2017-05-10T07:45:07.229Z,10.49
2017-05-10T07:46:07.972Z,10.49
2017-05-10T07:47:07.711Z,10.64
2017-05-10T07:48:07.429Z,10.71
2017-05-10T07:49:08.252Z,10.74
2017-05-10T07:50:08.070Z,10.75
2017-05-10T07:51:07.795Z,10.72
2017-05-10T07:52:07.453Z,10.71
2017-05-10T07:53:08.024Z,10.73
2017-05-10T07:54:07.696Z,10.75
2017-05-10T07:55:07.296Z,10.78
2017-05-10T07:56:08.002Z,10.85
2017-05-10T07:57:07.654Z,10.88
2017-05-10T07:58:07.142Z,10.85
2017-05-10T07:59:07.592Z,10.86
2017-05-10T08:00:07.253Z,10.86
2017-05-10T08:01:07.931Z,10.87
2017-05-10T08:02:07.739Z,10.93
2017-05-10T08:03:07.414Z,11.04
2017-05-10T08:04:08.245Z,11.06
2017-05-10T08:05:07.466Z,11.06
2017-05-10T08:06:07.686Z,11.00
2017-05-10T08:07:07.235Z,10.94
2017-05-10T08:08:07.868Z,11.07
2017-05-10T08:09:07.559Z,11.10
2017-05-10T08:10:07.334Z,11.11
2017-05-10T08:11:08.011Z,11.12
2017-05-10T08:12:07.781Z,11.14
2017-05-10T08:13:07.587Z,11.13
2017-05-10T08:14:07.460Z,11.18
2017-05-10T08:15:08.215Z,11.15
2017-05-10T08:16:07.808Z,11.08
2017-05-10T08:17:07.550Z,11.11
2017-05-10T08:18:08.090Z,11.13
2017-05-10T08:19:07.788Z,11.15
2017-05-10T08:20:07.437Z,11.15
2017-05-10T08:21:08.094Z,11.22
2017-05-10T08:22:07.736Z,11.25
2017-05-10T08:23:07.393Z,11.13
2017-05-10T08:24:08.048Z,11.15
2017-05-10T08:25:07.674Z,11.18
2017-05-10T08:26:07.571Z,11.19
2017-05-10T08:27:07.216Z,11.23
2017-05-10T08:28:08.652Z,11.24
2017-05-10T08:29:07.297Z,11.26
2017-05-10T08:30:08.214Z,11.35
2017-05-10T08:31:07.778Z,11.38
2017-05-10T08:32:07.465Z,11.37
2017-05-10T08:33:08.135Z,11.39
2017-05-10T08:34:07.950Z,11.37
2017-05-10T08:35:07.608Z,11.36
2017-05-10T08:36:07.206Z,11.37
2017-05-10T08:37:07.946Z,11.40
2017-05-10T08:38:07.660Z,11.41
2017-05-10T08:39:07.521Z,11.40
2017-05-10T08:40:08.091Z,11.38
2017-05-10T08:41:07.928Z,11.44
2017-05-10T08:42:07.653Z,11.46
2017-05-10T08:43:07.523Z,11.48
2017-05-10T08:44:08.181Z,11.50
2017-05-10T08:45:07.918Z,11.55
2017-05-10T08:46:07.818Z,11.60
2017-05-10T08:47:07.486Z,11.64
2017-05-10T08:48:08.137Z,11.58
2017-05-10T08:49:07.790Z,11.63
2017-05-10T08:50:07.408Z,11.62
2017-05-10T08:51:08.165Z,11.65
2017-05-10T08:52:07.936Z,11.66
2017-05-10T08:53:07.587Z,11.62
2017-05-10T08:54:07.293Z,11.61
2017-05-10T08:55:09.148Z,11.60
2017-05-10T08:56:07.962Z,11.63
2017-05-10T08:57:07.691Z,11.71
2017-05-10T08:58:07.360Z,11.70
2017-05-10T08:59:07.985Z,11.75
2017-05-10T09:00:07.573Z,11.75
2017-05-10T09:01:08.161Z,11.81
2017-05-10T09:02:07.807Z,11.83
2017-05-10T09:03:07.467Z,11.88
2017-05-10T09:04:08.236Z,11.89
2017-05-10T09:05:07.891Z,11.88
2017-05-10T09:06:07.689Z,11.94
2017-05-10T09:07:07.381Z,11.91
2017-05-10T09:08:08.185Z,11.92
2017-05-10T09:09:07.753Z,11.92
2017-05-10T09:10:07.448Z,11.90
2017-05-10T09:11:08.263Z,11.92
2017-05-10T09:12:07.956Z,11.91
2017-05-10T09:13:07.595Z,11.87
2017-05-10T09:14:07.374Z,11.96
2017-05-10T09:15:07.556Z,11.95
2017-05-10T09:16:07.317Z,11.93
2017-05-10T09:17:08.112Z,11.96
2017-05-10T09:18:07.693Z,11.92
2017-05-10T09:19:07.549Z,11.91
2017-05-10T09:20:08.218Z,11.89
2017-05-10T09:21:07.821Z,11.92
2017-05-10T09:22:07.593Z,11.97
2017-05-10T09:23:07.918Z,11.96
2017-05-10T09:24:07.491Z,11.95
2017-05-10T09:25:08.290Z,11.91
2017-05-10T09:26:08.086Z,11.94
2017-05-10T09:27:07.765Z,11.99
2017-05-10T09:28:07.398Z,12.05
2017-05-10T09:29:08.068Z,12.07
2017-05-10T09:30:07.879Z,12.17
2017-05-10T09:31:07.809Z,12.18
2017-05-10T09:32:07.595Z,12.17
2017-05-10T09:33:07.337Z,12.21
2017-05-10T09:34:07.975Z,12.22
2017-05-10T09:35:07.706Z,12.20
2017-05-10T09:36:07.287Z,12.19
2017-05-10T09:37:08.022Z,12.18
2017-05-10T09:38:07.695Z,12.20
2017-05-10T09:39:07.272Z,12.19
2017-05-10T09:40:07.908Z,12.21
2017-05-10T09:41:07.459Z,12.26
2017-05-10T09:42:08.056Z,12.27
2017-05-10T09:43:07.944Z,12.28
2017-05-10T09:44:07.695Z,12.29
2017-05-10T09:45:07.560Z,12.34
2017-05-10T09:46:08.142Z,12.35
2017-05-10T09:47:07.866Z,12.32
2017-05-10T09:48:07.544Z,12.43
2017-05-10T09:49:08.178Z,12.56
2017-05-10T09:50:07.881Z,12.52
2017-05-10T09:51:07.476Z,12.48
2017-05-10T09:52:27.701Z,12.51
2017-05-10T09:53:07.319Z,12.47
2017-05-10T09:54:07.795Z,12.48
2017-05-10T09:55:07.878Z,12.45
2017-05-10T09:56:07.616Z,12.42
2017-05-10T09:57:07.187Z,12.37
2017-05-10T09:58:08.092Z,12.36
2017-05-10T09:59:07.913Z,12.38
2017-05-10T10:00:08.292Z,12.41
2017-05-10T10:01:07.861Z,12.44
2017-05-10T10:02:07.532Z,12.50
2017-05-10T10:03:08.283Z,12.48
2017-05-10T10:04:07.984Z,12.46
2017-05-10T10:05:07.691Z,12.45
2017-05-10T10:06:07.378Z,12.48
2017-05-10T10:07:08.060Z,12.59
2017-05-10T10:08:07.645Z,12.58
2017-05-10T10:09:07.404Z,12.68
2017-05-10T10:10:08.153Z,12.70
2017-05-10T10:11:07.774Z,12.78
2017-05-10T10:12:07.559Z,12.82
2017-05-10T10:13:08.349Z,12.80
2017-05-10T10:14:08.048Z,12.79
2017-05-10T10:15:07.644Z,12.82
2017-05-10T10:16:07.382Z,12.79
2017-05-10T10:17:08.222Z,12.82
2017-05-10T10:18:08.086Z,12.87
2017-05-10T10:19:07.776Z,12.91
2017-05-10T10:20:07.453Z,12.92
2017-05-10T10:21:08.114Z,12.94
2017-05-10T10:22:07.885Z,12.90
2017-05-10T10:23:07.569Z,12.84
2017-05-10T10:24:08.183Z,12.83
2017-05-10T10:25:07.785Z,12.81
2017-05-10T10:26:07.462Z,12.83
2017-05-10T10:27:08.303Z,12.83
2017-05-10T10:28:07.936Z,12.86
2017-05-10T10:29:07.492Z,12.83
2017-05-10T10:30:09.088Z,12.88
2017-05-10T10:31:07.908Z,12.90
2017-05-10T10:32:07.536Z,12.91
2017-05-10T10:33:08.405Z,12.90
2017-05-10T10:34:08.169Z,12.91
2017-05-10T10:35:07.801Z,13.02
2017-05-10T10:36:07.458Z,13.03
2017-05-10T10:37:08.157Z,13.06
2017-05-10T10:38:07.821Z,13.04
2017-05-10T10:39:07.406Z,13.10
2017-05-10T10:40:08.146Z,13.08
2017-05-10T10:41:07.770Z,13.14
2017-05-10T10:42:07.600Z,13.17
2017-05-10T10:43:07.249Z,13.23
2017-05-10T10:44:07.921Z,13.31
2017-05-10T10:45:07.671Z,13.39
2017-05-10T10:46:07.327Z,13.37
2017-05-10T10:47:07.903Z,13.31
2017-05-10T10:48:07.559Z,13.29
2017-05-10T10:49:08.007Z,13.25
2017-05-10T10:50:07.509Z,13.21
2017-05-10T10:51:08.204Z,13.23
2017-05-10T10:52:07.865Z,13.25
2017-05-10T10:53:07.535Z,13.34
2017-05-10T10:54:08.237Z,13.34
2017-05-10T10:55:07.856Z,13.33
2017-05-10T10:56:07.781Z,13.46
2017-05-10T10:57:07.407Z,13.44
2017-05-10T10:58:08.223Z,13.36
2017-05-10T10:59:07.877Z,13.32
2017-05-10T11:00:07.598Z,13.29
2017-05-10T11:01:07.188Z,13.25
2017-05-10T11:02:08.125Z,13.24
2017-05-10T11:03:07.920Z,13.24
2017-05-10T11:04:07.706Z,13.29
2017-05-10T11:05:07.496Z,13.29
2017-05-10T11:06:08.257Z,13.31
2017-05-10T11:07:07.820Z,13.38
2017-05-10T11:08:07.502Z,13.41
2017-05-10T11:09:08.216Z,13.42
2017-05-10T11:10:07.806Z,13.52
2017-05-10T11:11:07.410Z,13.51
2017-05-10T11:12:08.281Z,13.64
2017-05-10T11:13:07.893Z,13.64
2017-05-10T11:14:07.585Z,13.61
2017-05-10T11:15:07.227Z,13.76
2017-05-10T11:16:08.105Z,13.80
2017-05-10T11:17:07.896Z,13.83
2017-05-10T11:18:07.543Z,13.81
2017-05-10T11:19:08.141Z,13.82
2017-05-10T11:20:07.826Z,13.77
2017-05-10T11:21:07.678Z,13.87
2017-05-10T11:22:07.342Z,13.83
2017-05-10T11:23:07.958Z,13.79
2017-05-10T11:24:07.601Z,13.77
2017-05-10T11:25:07.311Z,13.71
2017-05-10T11:26:08.011Z,13.81
2017-05-10T11:27:07.727Z,13.76
2017-05-10T11:28:07.660Z,13.74
2017-05-10T11:29:07.349Z,13.73
2017-05-10T11:30:08.128Z,13.75
2017-05-10T11:31:07.880Z,13.76
2017-05-10T11:32:07.653Z,13.89
2017-05-10T11:33:07.251Z,13.96
2017-05-10T11:34:07.951Z,14.00
2017-05-10T11:35:08.209Z,13.99
2017-05-10T11:36:07.891Z,14.00
2017-05-10T11:37:07.652Z,14.01
2017-05-10T11:38:07.582Z,14.07
2017-05-10T11:39:07.359Z,14.00
2017-05-10T11:40:07.644Z,13.96
2017-05-10T11:41:07.374Z,13.99
2017-05-10T11:42:08.036Z,14.03
2017-05-10T11:43:07.268Z,14.05
2017-05-10T11:44:07.972Z,14.02
2017-05-10T11:45:07.942Z,14.01
2017-05-10T11:46:07.381Z,13.96
2017-05-10T11:47:07.700Z,13.95
2017-05-10T11:48:07.389Z,14.02
2017-05-10T11:49:08.202Z,14.02
2017-05-10T11:50:07.959Z,14.02
2017-05-10T11:51:07.859Z,14.05
2017-05-10T11:52:07.509Z,14.15
2017-05-10T11:53:08.412Z,14.18
2017-05-10T11:54:08.220Z,14.24
2017-05-10T11:55:07.891Z,14.23
2017-05-10T11:56:07.581Z,14.27
2017-05-10T11:57:07.240Z,14.29
2017-05-10T11:58:08.106Z,14.32
2017-05-10T11:59:07.755Z,14.55
2017-05-10T12:00:07.522Z,14.53
2017-05-10T12:01:08.213Z,14.51
2017-05-10T12:02:07.839Z,14.56
2017-05-10T12:03:07.531Z,14.49
2017-05-10T12:04:08.337Z,14.49
2017-05-10T12:05:07.969Z,14.46
2017-05-10T12:06:07.652Z,14.43
2017-05-10T12:07:07.521Z,14.46
2017-05-10T12:08:08.173Z,14.55
2017-05-10T12:09:07.804Z,14.57
2017-05-10T12:10:07.498Z,14.57
2017-05-10T12:11:08.240Z,14.56
2017-05-10T12:12:08.039Z,14.64
2017-05-10T12:13:07.670Z,14.63
2017-05-10T12:14:07.393Z,14.64
2017-05-10T12:15:07.971Z,14.62
2017-05-10T12:16:07.655Z,14.74
2017-05-10T12:17:07.422Z,14.69
2017-05-10T12:18:08.211Z,14.72
2017-05-10T12:19:07.915Z,14.67
2017-05-10T12:20:07.607Z,14.63
2017-05-10T12:21:07.428Z,14.68
2017-05-10T12:22:08.042Z,14.79
2017-05-10T12:23:07.895Z,14.73
2017-05-10T12:24:07.564Z,14.69
2017-05-10T12:25:08.316Z,14.73
2017-05-10T12:26:07.964Z,14.78
2017-05-10T12:27:07.582Z,14.74
2017-05-10T12:28:07.239Z,14.71
2017-05-10T12:29:07.837Z,14.73
2017-05-10T12:30:07.494Z,14.74
2017-05-10T12:31:08.302Z,14.85
2017-05-10T12:32:08.063Z,14.88
2017-05-10T12:33:07.875Z,15.01
2017-05-10T12:34:07.576Z,15.02
2017-05-10T12:35:08.264Z,15.11
2017-05-10T12:36:08.031Z,15.07
2017-05-10T12:37:07.691Z,15.04
2017-05-10T12:38:07.376Z,15.09
2017-05-10T12:39:08.108Z,15.18
2017-05-10T12:40:07.924Z,15.23
2017-05-10T12:41:07.668Z,15.28
2017-05-10T12:42:07.572Z,15.23
2017-05-10T12:43:08.046Z,15.30
2017-05-10T12:44:07.536Z,15.30
2017-05-10T12:45:08.323Z,15.30
2017-05-10T12:46:08.106Z,15.33
2017-05-10T12:47:07.715Z,15.38
2017-05-10T12:48:07.433Z,15.42
2017-05-10T12:49:08.253Z,15.48
2017-05-10T12:50:07.931Z,15.59
2017-05-10T12:51:07.636Z,15.61
2017-05-10T12:52:07.267Z,15.64
2017-05-10T12:53:07.934Z,15.64
2017-05-10T12:54:07.656Z,15.67
2017-05-10T12:55:07.423Z,15.68
2017-05-10T12:56:08.005Z,15.69
2017-05-10T12:57:07.774Z,15.66
2017-05-10T12:58:07.386Z,15.67
2017-05-10T12:59:08.276Z,15.72
2017-05-10T13:00:07.891Z,15.74
2017-05-10T13:01:07.515Z,15.82
2017-05-10T13:02:08.215Z,15.90
2017-05-10T13:03:07.845Z,15.92
2017-05-10T13:04:07.566Z,15.96
2017-05-10T13:05:07.386Z,16.01
2017-05-10T13:06:08.000Z,16.09